createdAt,value
2019-01-26T00:02:03.146Z,93467.41
2019-01-26T00:04:29.147Z,93464.58
2019-01-26T00:06:55.142Z,93460.75
2019-01-26T00:09:21.193Z,93460.08
2019-01-26T00:11:47.194Z,93457.41
2019-01-26T00:14:13.186Z,93459.66
2019-01-26T00:16:39.243Z,93464.58
2019-01-26T00:19:05.236Z,93463.39
2019-01-26T00:21:31.275Z,93460.59
2019-01-26T00:23:57.315Z,93474.31
2019-01-26T00:26:23.312Z,93466.84
2019-01-26T00:28:49.308Z,93466.05
2019-01-26T00:31:15.349Z,93461.65
2019-01-26T00:33:43.177Z,93454.99
2019-01-26T00:36:07.353Z,93466.16
2019-01-26T00:38:33.381Z,93466.16
2019-01-26T00:40:59.420Z,93475.06
2019-01-26T00:43:25.414Z,93488.00
2019-01-26T00:45:51.450Z,93494.25
2019-01-26T00:48:17.499Z,93484.92
2019-01-26T00:50:43.494Z,93481.86
2019-01-26T00:53:09.531Z,93473.87
2019-01-26T00:55:35.528Z,93476.36
2019-01-26T00:58:01.558Z,93480.12
2019-01-26T01:00:27.600Z,93481.86
2019-01-26T01:02:53.594Z,93486.27
2019-01-26T01:05:19.587Z,93490.77
2019-01-26T01:07:45.650Z,93496.73
2019-01-26T01:10:11.612Z,93498.48
2019-01-26T01:12:37.646Z,93498.75
2019-01-26T01:15:03.651Z,93501.93
2019-01-26T01:17:29.644Z,93503.27
2019-01-26T01:19:55.684Z,93509.13
2019-01-26T01:22:21.715Z,93510.05
2019-01-26T01:24:47.709Z,93500.73
2019-01-26T01:27:13.704Z,93498.89
2019-01-26T01:29:39.741Z,93502.98
2019-01-26T01:32:05.774Z,93504.73
2019-01-26T01:34:31.766Z,93503.27
2019-01-26T01:36:57.799Z,93506.98
2019-01-26T01:39:23.867Z,93501.79
2019-01-26T01:41:49.857Z,93504.05
2019-01-26T01:44:15.891Z,93496.58
2019-01-26T01:46:43.030Z,93499.64
2019-01-26T01:49:07.924Z,93496.47
2019-01-26T01:51:33.920Z,93504.45
2019-01-26T01:53:59.918Z,93495.23
2019-01-26T01:56:25.952Z,93502.03
2019-01-26T01:58:51.947Z,93502.82
2019-01-26T02:01:17.944Z,93500.30
2019-01-26T02:03:44.145Z,93496.70
2019-01-26T02:06:10.175Z,93501.63
2019-01-26T02:08:36.221Z,93503.88
2019-01-26T02:11:02.217Z,93503.88
2019-01-26T02:13:28.207Z,93506.03
2019-01-26T02:15:54.246Z,93513.61
2019-01-26T02:18:20.249Z,93515.96
2019-01-26T02:20:46.271Z,93518.25
2019-01-26T02:23:12.275Z,93520.36
2019-01-26T02:25:38.312Z,93522.62
2019-01-26T02:28:04.351Z,93513.70
2019-01-26T02:30:30.397Z,93511.59
2019-01-26T02:32:56.392Z,93518.25
2019-01-26T02:35:22.379Z,93521.02
2019-01-26T02:37:48.414Z,93523.27
2019-01-26T02:40:14.407Z,93517.02
2019-01-26T02:42:40.459Z,93517.02
2019-01-26T02:45:06.439Z,93521.53
2019-01-26T02:47:32.436Z,93519.27
2019-01-26T02:49:58.481Z,93524.19
2019-01-26T02:52:24.474Z,93534.42
2019-01-26T02:54:50.471Z,93524.84
2019-01-26T02:57:16.504Z,93528.42
2019-01-26T02:59:42.534Z,93528.31
2019-01-26T03:02:08.529Z,93543.06
2019-01-26T03:04:34.524Z,93547.88
2019-01-26T03:07:00.564Z,93540.81
2019-01-26T03:09:26.554Z,93545.86
2019-01-26T03:11:52.553Z,93536.13
2019-01-26T03:14:18.587Z,93546.27
2019-01-26T03:16:44.583Z,93551.59
2019-01-26T03:19:10.580Z,93554.36
2019-01-26T03:21:36.623Z,93555.28
2019-01-26T03:24:02.618Z,93564.73
2019-01-26T03:26:28.613Z,93568.19
2019-01-26T03:28:54.642Z,93568.59
2019-01-26T03:31:20.694Z,93565.93
2019-01-26T03:33:46.689Z,93570.33
2019-01-26T03:36:12.696Z,93575.38
2019-01-26T03:38:38.747Z,93574.46
2019-01-26T03:41:04.742Z,93584.30
2019-01-26T03:43:30.775Z,93578.56
2019-01-26T03:45:56.776Z,93578.05
2019-01-26T03:48:22.809Z,93589.20
2019-01-26T03:50:48.803Z,93594.02
2019-01-26T03:53:14.794Z,93591.46
2019-01-26T03:55:40.830Z,93591.05
2019-01-26T03:58:06.828Z,93591.46
2019-01-26T04:00:32.829Z,93596.51
2019-01-26T04:02:58.945Z,93596.00
2019-01-26T04:05:24.939Z,93595.17
2019-01-26T04:07:50.935Z,93594.36
2019-01-26T04:10:16.967Z,93602.75
2019-01-26T04:12:43.022Z,93603.27
2019-01-26T04:15:09.008Z,93596.61
2019-01-26T04:17:35.039Z,93592.62
2019-01-26T04:20:01.051Z,93602.75
2019-01-26T04:22:27.056Z,93600.09
2019-01-26T04:24:53.080Z,93609.55
2019-01-26T04:27:19.116Z,93609.13
2019-01-26T04:29:45.116Z,93613.64
2019-01-26T04:32:11.109Z,93611.48
2019-01-26T04:34:37.142Z,93610.98
2019-01-26T04:37:03.140Z,93615.38
2019-01-26T04:39:29.142Z,93622.95
2019-01-26T04:41:55.184Z,93619.48
2019-01-26T04:44:21.176Z,93623.47
2019-01-26T04:46:47.171Z,93619.09
2019-01-26T04:49:13.254Z,93631.45
2019-01-26T04:51:39.217Z,93640.77
2019-01-26T04:54:05.213Z,93639.98
2019-01-26T04:56:31.254Z,93644.89
2019-01-26T04:58:57.290Z,93641.72
2019-01-26T05:01:23.293Z,93643.56
2019-01-26T05:03:49.291Z,93647.15
2019-01-26T05:06:15.330Z,93656.47
2019-01-26T05:08:41.325Z,93661.92
2019-01-26T05:11:07.320Z,93674.83
2019-01-26T05:13:33.361Z,93676.43
2019-01-26T05:15:59.363Z,93670.29
2019-01-26T05:18:25.354Z,93674.41
2019-01-26T05:20:51.404Z,93673.49
2019-01-26T05:23:17.405Z,93675.34
2019-01-26T05:25:43.408Z,93689.05
2019-01-26T05:28:09.468Z,93685.47
2019-01-26T05:30:35.469Z,93691.30
2019-01-26T05:33:01.464Z,93685.57
2019-01-26T05:35:27.509Z,93698.47
2019-01-26T05:37:53.507Z,93694.48
2019-01-26T05:40:19.499Z,93700.34
2019-01-26T05:42:45.560Z,93695.81
2019-01-26T05:45:11.650Z,93698.61
2019-01-26T05:47:37.646Z,93709.36
2019-01-26T05:50:03.641Z,93711.17
2019-01-26T05:52:29.671Z,93719.53
2019-01-26T05:54:55.667Z,93725.27
2019-01-26T05:57:21.664Z,93740.73
2019-01-26T05:59:47.708Z,93742.98
2019-01-26T06:02:13.715Z,93748.72
2019-01-26T06:04:39.699Z,93751.37
2019-01-26T06:07:05.743Z,93754.96
2019-01-26T06:09:31.772Z,93756.70
2019-01-26T06:11:57.768Z,93754.04
2019-01-26T06:14:23.833Z,93753.63
2019-01-26T06:16:49.881Z,93756.02
2019-01-26T06:19:15.875Z,93758.27
2019-01-26T06:21:41.932Z,93756.42
2019-01-26T06:24:07.931Z,93763.87
2019-01-26T06:26:33.924Z,93759.47
2019-01-26T06:28:59.972Z,93756.80
2019-01-26T06:31:25.988Z,93766.42
2019-01-26T06:33:51.979Z,93770.52
2019-01-26T06:36:18.023Z,93773.08
2019-01-26T06:38:44.014Z,93776.77
2019-01-26T06:41:10.009Z,93782.09
2019-01-26T06:43:36.056Z,93783.97
2019-01-26T06:46:02.052Z,93785.80
2019-01-26T06:48:28.047Z,93784.38
2019-01-26T06:50:54.088Z,93791.13
2019-01-26T06:53:20.083Z,93784.88
2019-01-26T06:55:46.080Z,93793.28
2019-01-26T06:58:12.118Z,93797.69
2019-01-26T07:00:38.110Z,93789.70
2019-01-26T07:03:04.165Z,93791.54
2019-01-26T07:05:30.230Z,93790.21
2019-01-26T07:07:56.234Z,93789.80
2019-01-26T07:10:22.220Z,93795.25
2019-01-26T07:12:48.383Z,93803.62
2019-01-26T07:15:14.381Z,93793.52
2019-01-26T07:17:40.375Z,93792.59
2019-01-26T07:20:06.437Z,93805.91
2019-01-26T07:22:32.431Z,93798.02
2019-01-26T07:24:58.409Z,93804.27
2019-01-26T07:27:24.451Z,93793.92
2019-01-26T07:29:50.453Z,93794.02
2019-01-26T07:32:16.477Z,93800.17
2019-01-26T07:34:42.467Z,93804.57
2019-01-26T07:37:08.471Z,93809.99
2019-01-26T07:39:34.510Z,93807.74
2019-01-26T07:42:00.577Z,93802.83
2019-01-26T07:44:26.514Z,93816.14
2019-01-26T07:46:52.551Z,93819.72
2019-01-26T07:49:18.550Z,93822.38
2019-01-26T07:51:44.548Z,93824.53
2019-01-26T07:54:10.771Z,93824.64
2019-01-26T07:56:36.779Z,93824.23
2019-01-26T07:59:02.796Z,93838.77
2019-01-26T08:01:28.815Z,93834.87
2019-01-26T08:03:54.812Z,93834.87
2019-01-26T08:06:20.847Z,93841.02
2019-01-26T08:08:46.843Z,93827.98
2019-01-26T08:11:12.840Z,93824.00
2019-01-26T08:13:38.869Z,93833.85
2019-01-26T08:16:04.871Z,93843.86
2019-01-26T08:18:30.868Z,93849.87
2019-01-26T08:20:56.908Z,93845.23
2019-01-26T08:23:22.902Z,93851.07
2019-01-26T08:25:48.893Z,93858.14
2019-01-26T08:28:14.940Z,93864.00
2019-01-26T08:30:40.943Z,93858.04
2019-01-26T08:33:06.935Z,93851.48
2019-01-26T08:35:33.049Z,93859.06
2019-01-26T08:37:59.045Z,93875.75
2019-01-26T08:40:25.055Z,93875.44
2019-01-26T08:42:51.474Z,93874.29
2019-01-26T08:45:17.471Z,93878.41
2019-01-26T08:47:43.462Z,93871.76
2019-01-26T08:50:09.585Z,93875.39
2019-01-26T08:52:35.591Z,93872.45
2019-01-26T08:55:01.889Z,93876.44
2019-01-26T08:57:27.910Z,93880.02
2019-01-26T08:59:53.966Z,93878.69
2019-01-26T09:02:25.429Z,93874.47
2019-01-26T09:04:52.592Z,93880.44
2019-01-26T09:10:00.275Z,93883.42
2019-01-26T09:12:26.257Z,93886.22
2019-01-26T09:14:52.254Z,93896.56
2019-01-26T09:17:18.567Z,93901.09
2019-01-26T09:19:44.564Z,93905.88
2019-01-26T09:22:10.567Z,93904.16
2019-01-26T09:24:36.621Z,93907.75
2019-01-26T09:27:02.622Z,93910.00
2019-01-26T09:29:28.623Z,93906.19
2019-01-26T09:31:54.673Z,93907.70
2019-01-26T09:34:20.830Z,93905.03
2019-01-26T09:36:47.042Z,93897.43
2019-01-26T09:39:13.135Z,93897.84
2019-01-26T09:41:39.674Z,93897.15
2019-01-26T09:44:05.678Z,93899.30
2019-01-26T09:46:31.851Z,93898.07
2019-01-26T09:48:57.860Z,93905.64
2019-01-26T09:51:24.311Z,93904.86
2019-01-26T09:53:51.158Z,93911.38
2019-01-26T09:56:17.423Z,93911.80
2019-01-26T09:58:43.524Z,93910.74
2019-01-26T10:01:09.855Z,93901.55
2019-01-26T10:03:35.883Z,93898.76
2019-01-26T10:06:02.058Z,93893.20
2019-01-26T10:08:28.057Z,93904.50
2019-01-26T10:10:55.371Z,93908.80
2019-01-26T10:13:20.715Z,93904.58
2019-01-26T10:15:46.713Z,93905.59
2019-01-26T10:18:12.752Z,93913.35
2019-01-26T10:20:38.754Z,93913.25
2019-01-26T10:23:04.750Z,93916.20
2019-01-26T10:25:33.999Z,93914.45
2019-01-26T10:27:59.995Z,93922.34
2019-01-26T10:30:25.990Z,93921.30
2019-01-26T10:32:52.043Z,93921.70
2019-01-26T10:35:18.038Z,93917.81
2019-01-26T10:37:44.031Z,93920.38
2019-01-26T10:40:10.345Z,93925.59
2019-01-26T10:42:37.995Z,93924.64
2019-01-26T10:47:51.250Z,93921.19
2019-01-26T10:53:17.856Z,93920.27
2019-01-26T10:55:44.376Z,93931.20
2019-01-26T10:58:10.386Z,93918.71
2019-01-26T11:00:36.378Z,93917.25
2019-01-26T11:03:02.414Z,93916.20
2019-01-26T11:05:28.407Z,93912.92
2019-01-26T11:07:54.405Z,93922.11
2019-01-26T11:10:20.449Z,93919.04
2019-01-26T11:12:46.448Z,93916.20
2019-01-26T11:15:12.602Z,93907.28
2019-01-26T11:17:38.879Z,93911.69
2019-01-26T11:20:04.876Z,93902.60
2019-01-26T11:22:30.874Z,93906.50
2019-01-26T11:24:56.913Z,93901.68
2019-01-26T11:27:22.923Z,93899.30
2019-01-26T11:29:49.216Z,93905.31
2019-01-26T11:32:15.297Z,93905.95
2019-01-26T11:34:41.295Z,93907.01
2019-01-26T11:37:07.291Z,93918.81
2019-01-26T11:39:33.340Z,93916.61
2019-01-26T11:41:59.522Z,93917.53
2019-01-26T11:44:25.510Z,93915.28
2019-01-26T11:46:51.561Z,93924.31
2019-01-26T11:49:17.568Z,93922.85
2019-01-26T11:51:43.565Z,93918.71
2019-01-26T11:54:12.023Z,93914.30
2019-01-26T11:56:38.020Z,93915.51
2019-01-26T11:59:04.020Z,93917.20
2019-01-26T12:01:30.118Z,93915.22
2019-01-26T12:03:56.119Z,93925.98
2019-01-26T12:06:23.632Z,93924.13
2019-01-26T12:08:48.247Z,93919.32
2019-01-26T12:11:14.243Z,93925.05
2019-01-26T12:13:40.283Z,93920.55
2019-01-26T12:16:06.278Z,93921.70
2019-01-26T12:18:32.285Z,93931.12
2019-01-26T12:20:58.399Z,93925.23
2019-01-26T12:23:24.598Z,93931.99
2019-01-26T12:25:50.594Z,93933.45
2019-01-26T12:28:16.645Z,93926.48
2019-01-26T12:30:42.639Z,93930.48
2019-01-26T12:33:08.642Z,93930.20
2019-01-26T12:35:34.706Z,93929.28
2019-01-26T12:38:00.701Z,93929.38
2019-01-26T12:40:26.707Z,93929.61
2019-01-26T12:42:52.734Z,93926.16
2019-01-26T12:45:18.779Z,93927.59
2019-01-26T12:47:44.777Z,93935.57
2019-01-26T12:50:10.776Z,93931.16
2019-01-26T12:52:36.818Z,93931.16
2019-01-26T12:55:02.816Z,93937.03
2019-01-26T12:57:28.810Z,93935.80
2019-01-26T12:59:54.847Z,93935.39
2019-01-26T13:02:20.845Z,93934.59
2019-01-26T13:04:46.838Z,93933.27
2019-01-26T13:07:12.889Z,93929.91
2019-01-26T13:09:38.890Z,93938.82
2019-01-26T13:12:04.894Z,93939.69
2019-01-26T13:14:30.926Z,93950.11
2019-01-26T13:16:56.937Z,93949.80
2019-01-26T13:19:22.978Z,93955.44
2019-01-26T13:21:49.126Z,93950.34
2019-01-26T13:24:15.128Z,93948.47
2019-01-26T13:26:41.166Z,93960.44
2019-01-26T13:29:07.571Z,93958.70
2019-01-26T13:31:33.572Z,93963.11
2019-01-26T13:33:59.613Z,93960.03
2019-01-26T13:36:25.608Z,93965.26
2019-01-26T13:38:51.616Z,93968.43
2019-01-26T13:41:17.651Z,93965.77
2019-01-26T13:43:43.638Z,93967.41
2019-01-26T13:46:09.678Z,93972.83
2019-01-26T13:48:35.715Z,93970.86
2019-01-26T13:51:01.728Z,93980.18
2019-01-26T13:53:27.729Z,93982.97
2019-01-26T13:55:53.776Z,93984.48
2019-01-26T13:58:19.771Z,93986.92
2019-01-26T14:00:45.772Z,93978.39
2019-01-26T14:03:11.819Z,93986.69
2019-01-26T14:05:37.856Z,93987.48
2019-01-26T14:08:03.851Z,93981.23
2019-01-26T14:10:30.508Z,93988.81
2019-01-26T14:12:59.612Z,93985.97
2019-01-26T14:15:25.610Z,93996.75
2019-01-26T14:17:52.035Z,93996.75
2019-01-26T14:20:20.263Z,93993.27
2019-01-26T14:22:48.112Z,93993.27
2019-01-26T14:25:14.163Z,94000.33
2019-01-26T14:27:41.688Z,94003.17
2019-01-26T14:30:08.512Z,93998.77
2019-01-26T14:32:36.046Z,94002.07
2019-01-26T14:35:05.739Z,94003.91
2019-01-26T14:37:36.247Z,94002.70
2019-01-26T14:40:02.600Z,94010.28
2019-01-26T14:42:37.313Z,94009.05
2019-01-26T14:45:07.750Z,94011.33
2019-01-26T14:47:46.687Z,94014.50
2019-01-26T14:50:12.680Z,94025.25
2019-01-26T14:52:40.473Z,94028.73
2019-01-26T14:55:21.862Z,94018.82
2019-01-26T14:57:49.920Z,94025.47
2019-01-26T15:00:16.806Z,94025.60
2019-01-26T15:02:42.911Z,94018.31
2019-01-26T15:05:09.044Z,94027.34
2019-01-26T15:07:37.718Z,94024.27
2019-01-26T15:10:03.726Z,94030.65
2019-01-26T15:12:30.107Z,94027.16
2019-01-26T15:14:57.106Z,94029.59
2019-01-26T15:17:23.549Z,94028.78
2019-01-26T15:19:49.780Z,94033.69
2019-01-26T15:22:17.687Z,94039.33
2019-01-26T15:24:43.803Z,94049.56
2019-01-26T15:27:09.851Z,94056.09
2019-01-26T15:29:38.269Z,94045.98
2019-01-26T15:32:04.369Z,94053.55
2019-01-26T15:34:36.181Z,94062.46
2019-01-26T15:37:04.947Z,94066.04
2019-01-26T15:39:32.936Z,94066.68
2019-01-26T15:42:00.250Z,94072.83
2019-01-26T15:44:28.764Z,94075.08
2019-01-26T15:46:54.766Z,94066.27
2019-01-26T15:49:21.192Z,94066.39
2019-01-26T15:51:48.103Z,94072.41
2019-01-26T15:54:15.210Z,94078.25
2019-01-26T15:56:41.270Z,94079.06
2019-01-26T15:59:10.415Z,94078.25
2019-01-26T16:01:38.819Z,94078.66
2019-01-26T16:04:10.481Z,94081.31
2019-01-26T16:06:37.480Z,94084.08
2019-01-26T16:09:03.482Z,94082.36
2019-01-26T16:11:29.536Z,94087.09
2019-01-26T16:13:55.876Z,94092.60
2019-01-26T16:16:21.884Z,94090.35
2019-01-26T16:18:48.251Z,94091.14
2019-01-26T16:21:14.312Z,94101.92
2019-01-26T16:23:40.328Z,94100.40
2019-01-26T16:26:06.318Z,94108.57
2019-01-26T16:28:32.384Z,94115.64
2019-01-26T16:30:58.379Z,94119.73
2019-01-26T16:33:24.382Z,94119.22
2019-01-26T16:35:50.426Z,94125.46
2019-01-26T16:38:16.446Z,94131.70
2019-01-26T16:40:42.423Z,94130.59
2019-01-26T16:43:08.461Z,94132.63
2019-01-26T16:45:34.462Z,94128.00
2019-01-26T16:48:00.497Z,94128.76
2019-01-26T16:50:27.754Z,94130.88
2019-01-26T16:52:52.547Z,94128.44
2019-01-26T16:55:18.548Z,94136.20
2019-01-26T16:57:44.600Z,94130.59
2019-01-26T17:00:10.596Z,94126.61
2019-01-26T17:02:36.594Z,94131.01
2019-01-26T17:05:02.651Z,94132.34
2019-01-26T17:07:28.651Z,94135.41
2019-01-26T17:09:54.642Z,94142.86
2019-01-26T17:12:20.684Z,94131.01
2019-01-26T17:14:46.679Z,94144.60
2019-01-26T17:17:12.722Z,94145.30
2019-01-26T17:19:38.788Z,94152.14
2019-01-26T17:22:04.792Z,94149.38
2019-01-26T17:24:30.845Z,94148.47
2019-01-26T17:26:56.836Z,94152.77
2019-01-26T17:29:22.834Z,94158.41
2019-01-26T17:31:48.880Z,94169.16
2019-01-26T17:34:14.900Z,94161.27
2019-01-26T17:36:40.894Z,94163.55
2019-01-26T17:39:06.937Z,94163.14
2019-01-26T17:41:32.940Z,94169.98
2019-01-26T17:43:59.120Z,94168.66
2019-01-26T17:46:25.116Z,94173.62
2019-01-26T17:48:51.115Z,94171.28
2019-01-26T17:51:17.160Z,94176.19
2019-01-26T17:53:43.373Z,94180.05
2019-01-26T17:56:09.443Z,94178.73
2019-01-26T17:58:35.447Z,94183.13
2019-01-26T18:01:01.466Z,94180.47
2019-01-26T18:03:28.435Z,94187.13
2019-01-26T18:05:54.428Z,94186.48
2019-01-26T18:08:20.423Z,94181.58
2019-01-26T18:10:46.466Z,94187.41
2019-01-26T18:13:12.527Z,94189.78
2019-01-26T18:15:38.570Z,94189.78
2019-01-26T18:18:04.566Z,94176.19
2019-01-26T18:20:30.562Z,94183.26
2019-01-26T18:22:56.612Z,94176.70
2019-01-26T18:25:22.606Z,94190.83
2019-01-26T18:27:48.973Z,94179.27
2019-01-26T18:30:15.013Z,94169.00
2019-01-26T18:32:41.860Z,94177.94
2019-01-26T18:35:07.858Z,94181.39
2019-01-26T18:37:33.925Z,94173.12
2019-01-26T18:39:59.928Z,94173.40
2019-01-26T18:42:25.923Z,94171.66
2019-01-26T18:44:51.989Z,94166.18
2019-01-26T18:47:17.991Z,94175.37
2019-01-26T18:49:43.989Z,94171.09
2019-01-26T18:52:10.053Z,94161.96
2019-01-26T18:54:36.061Z,94168.84
2019-01-26T18:57:02.050Z,94165.35
2019-01-26T18:59:28.107Z,94164.72
2019-01-26T19:01:54.419Z,94166.97
2019-01-26T19:04:20.454Z,94163.07
2019-01-26T19:06:46.456Z,94159.91
2019-01-26T19:09:12.555Z,94158.53
2019-01-26T19:11:38.588Z,94163.64
2019-01-26T19:14:06.104Z,94156.19
2019-01-26T19:16:32.947Z,94159.36
2019-01-26T19:19:01.938Z,94157.91
2019-01-26T19:21:28.684Z,94158.44
2019-01-26T19:23:57.678Z,94152.98
2019-01-26T19:26:24.906Z,94151.15
2019-01-26T19:28:52.103Z,94152.54
2019-01-26T19:31:18.271Z,94148.45
2019-01-26T19:33:48.703Z,94143.92
2019-01-26T19:36:15.019Z,94145.38
2019-01-26T19:38:41.015Z,94153.02
2019-01-26T19:41:07.066Z,94150.48
2019-01-26T19:43:33.070Z,94141.25
2019-01-26T19:45:59.068Z,94140.81
2019-01-26T19:48:25.104Z,94141.45
2019-01-26T19:50:51.098Z,94144.64
2019-01-26T19:53:17.132Z,94139.92
2019-01-26T19:55:43.131Z,94135.93
2019-01-26T19:58:09.478Z,94134.31
2019-01-26T20:00:35.490Z,94133.81
2019-01-26T20:03:01.556Z,94129.27
2019-01-26T20:05:27.578Z,94129.81
2019-01-26T20:07:53.594Z,94133.36
2019-01-26T20:10:19.668Z,94129.18
2019-01-26T20:12:45.658Z,94130.28
2019-01-26T20:15:11.695Z,94119.67
2019-01-26T20:17:38.106Z,94129.47
2019-01-26T20:20:04.121Z,94126.70
2019-01-26T20:22:30.123Z,94125.37
2019-01-26T20:24:56.164Z,94124.27
2019-01-26T20:27:22.155Z,94121.19
2019-01-26T20:29:48.168Z,94117.02
2019-01-26T20:32:14.207Z,94113.80
2019-01-26T20:34:40.199Z,94120.69
2019-01-26T20:37:06.235Z,94120.27
2019-01-26T20:39:32.231Z,94110.03
2019-01-26T20:41:59.333Z,94106.77
2019-01-26T20:44:24.266Z,94115.87
2019-01-26T20:46:50.304Z,94116.79
2019-01-26T20:49:16.299Z,94121.28
2019-01-26T20:51:42.332Z,94133.27
2019-01-26T20:54:08.338Z,94130.73
2019-01-26T20:56:34.331Z,94142.08
2019-01-26T20:59:00.327Z,94141.80
2019-01-26T21:01:26.368Z,94148.23
2019-01-26T21:03:52.359Z,94154.47
2019-01-26T21:06:18.366Z,94148.23
2019-01-26T21:08:44.409Z,94148.42
2019-01-26T21:11:10.404Z,94152.91
2019-01-26T21:13:36.435Z,94155.80
2019-01-26T21:16:02.431Z,94152.73
2019-01-26T21:18:28.477Z,94158.56
2019-01-26T21:20:54.474Z,94156.22
2019-01-26T21:23:20.472Z,94146.26
2019-01-26T21:25:46.507Z,94146.13
2019-01-26T21:28:12.555Z,94145.16
2019-01-26T21:30:38.551Z,94149.56
2019-01-26T21:33:04.587Z,94154.66
2019-01-26T21:35:30.578Z,94154.06
2019-01-26T21:37:56.630Z,94161.13
2019-01-26T21:40:22.680Z,94157.55
2019-01-26T21:42:48.676Z,94156.41
2019-01-26T21:45:14.711Z,94161.41
2019-01-26T21:47:40.715Z,94164.08
2019-01-26T21:50:06.706Z,94156.27
2019-01-26T21:52:32.743Z,94163.16
2019-01-26T21:54:59.113Z,94170.73
2019-01-26T21:57:25.151Z,94168.61
2019-01-26T21:59:51.204Z,94171.74
2019-01-26T22:02:17.243Z,94174.59
2019-01-26T22:04:43.239Z,94175.83
2019-01-26T22:07:09.232Z,94176.98
2019-01-26T22:09:35.283Z,94167.09
2019-01-26T22:12:01.278Z,94179.48
2019-01-26T22:14:27.284Z,94180.69
2019-01-26T22:16:53.352Z,94164.84
2019-01-26T22:19:21.894Z,94162.27
2019-01-26T22:21:46.094Z,94165.34
2019-01-26T22:24:11.375Z,94163.73
2019-01-26T22:26:37.405Z,94164.65
2019-01-26T22:29:03.403Z,94161.58
2019-01-26T22:31:29.442Z,94167.82
2019-01-26T22:33:55.521Z,94171.81
2019-01-26T22:36:21.558Z,94175.81
2019-01-26T22:38:47.553Z,94171.21
2019-01-26T22:41:13.601Z,94173.14
2019-01-26T22:43:39.601Z,94190.58
2019-01-26T22:46:05.600Z,94190.58
2019-01-26T22:48:31.687Z,94189.75
2019-01-26T22:50:57.685Z,94190.86
2019-01-26T22:53:23.717Z,94186.74
2019-01-26T22:55:49.710Z,94183.76
2019-01-26T22:58:15.702Z,94185.50
2019-01-26T23:00:41.744Z,94189.91
2019-01-26T23:03:07.767Z,94179.41
2019-01-26T23:05:33.759Z,94185.59
2019-01-26T23:07:59.791Z,94184.67
2019-01-26T23:10:25.790Z,94190.92
2019-01-26T23:12:51.831Z,94191.39
2019-01-26T23:15:17.872Z,94202.17
2019-01-26T23:17:43.907Z,94211.72
2019-01-26T23:20:09.902Z,94212.00
2019-01-26T23:22:35.905Z,94207.38
2019-01-26T23:25:01.935Z,94214.75
2019-01-26T23:27:27.930Z,94220.53
2019-01-26T23:29:53.972Z,94219.29
2019-01-26T23:32:19.973Z,94219.00
2019-01-26T23:34:45.968Z,94221.31
2019-01-26T23:37:12.005Z,94223.56
2019-01-26T23:39:38.009Z,94219.58
2019-01-26T23:42:04.076Z,94209.14
2019-01-26T23:44:30.125Z,94205.47
2019-01-26T23:46:56.122Z,94204.64
2019-01-26T23:49:22.121Z,94198.50
2019-01-26T23:51:48.157Z,94201.80
2019-01-26T23:54:14.157Z,94199.55
2019-01-26T23:56:40.160Z,94208.58
2019-01-26T23:59:06.186Z,94206.84
